sensor_id;sensor_type;location;lat;lon;timestamp;pressure;altitude;pressure_sealevel;temperature;humidity
14067;BME280;7108;42.684;23.350;2023-04-03T00:00:50;94728.78;;;10.19;100.00
14067;BME280;7108;42.684;23.350;2023-04-03T00:03:17;94725.38;;;10.22;100.00
14067;BME280;7108;42.684;23.350;2023-04-03T00:05:42;94726.47;;;10.18;100.00
14067;BME280;7108;42.684;23.350;2023-04-03T00:08:08;94724.19;;;10.20;100.00
14067;BME280;7108;42.684;23.350;2023-04-03T00:10:35;94727.19;;;10.15;100.00
14067;BME280;7108;42.684;23.350;2023-04-03T00:13:02;94725.63;;;10.10;100.00
14067;BME280;7108;42.684;23.350;2023-04-03T00:15:28;94710.50;;;10.02;100.00
14067;BME280;7108;42.684;23.350;2023-04-03T00:17:53;94711.66;;;10.01;100.00
14067;BME280;7108;42.684;23.350;2023-04-03T00:20:19;94707.44;;;10.00;100.00
14067;BME280;7108;42.684;23.350;2023-04-03T00:22:44;94710.88;;;10.01;100.00
14067;BME280;7108;42.684;23.350;2023-04-03T00:25:10;94710.84;;;9.97;100.00
14067;BME280;7108;42.684;23.350;2023-04-03T00:27:37;94711.97;;;9.96;100.00
14067;BME280;7108;42.684;23.350;2023-04-03T00:30:05;94709.63;;;9.95;100.00
14067;BME280;7108;42.684;23.350;2023-04-03T00:32:31;94704.94;;;9.88;100.00
14067;BME280;7108;42.684;23.350;2023-04-03T00:34:56;94711.81;;;9.86;100.00
14067;BME280;7108;42.684;23.350;2023-04-03T00:37:22;94708.66;;;9.80;100.00
14067;BME280;7108;42.684;23.350;2023-04-03T00:39:47;94711.41;;;9.84;100.00
14067;BME280;7108;42.684;23.350;2023-04-03T00:42:12;94703.63;;;9.79;100.00
14067;BME280;7108;42.684;23.350;2023-04-03T00:47:05;94712.03;;;9.74;100.00
14067;BME280;7108;42.684;23.350;2023-04-03T00:49:32;94716.22;;;9.72;100.00
14067;BME280;7108;42.684;23.350;2023-04-03T00:51:58;94720.06;;;9.71;100.00
14067;BME280;7108;42.684;23.350;2023-04-03T00:54:25;94715.78;;;9.66;100.00
14067;BME280;7108;42.684;23.350;2023-04-03T00:56:51;94723.75;;;9.59;100.00
14067;BME280;7108;42.684;23.350;2023-04-03T00:59:22;94717.16;;;9.57;100.00
14067;BME280;7108;42.684;23.350;2023-04-03T01:01:50;94725.50;;;9.48;100.00
14067;BME280;7108;42.684;23.350;2023-04-03T01:04:45;94725.50;;;9.48;100.00
14067;BME280;7108;42.684;23.350;2023-04-03T01:07:16;94723.22;;;9.50;100.00
14067;BME280;7108;42.684;23.350;2023-04-03T01:09:44;94722.69;;;9.41;100.00
14067;BME280;7108;42.684;23.350;2023-04-03T01:12:28;94720.84;;;9.45;100.00
14067;BME280;7108;42.684;23.350;2023-04-03T01:15:40;94722.75;;;9.45;100.00
14067;BME280;7108;42.684;23.350;2023-04-03T01:17:50;94725.75;;;9.40;100.00
14067;BME280;7108;42.684;23.350;2023-04-03T01:25:34;94721.78;;;9.30;100.00
14067;BME280;7108;42.684;23.350;2023-04-03T01:27:59;94715.63;;;9.30;100.00
14067;BME280;7108;42.684;23.350;2023-04-03T01:30:31;94732.16;;;9.32;100.00
14067;BME280;7108;42.684;23.350;2023-04-03T01:32:57;94722.50;;;9.27;100.00
14067;BME280;7108;42.684;23.350;2023-04-03T01:35:22;94717.91;;;9.28;100.00
14067;BME280;7108;42.684;23.350;2023-04-03T01:37:48;94726.72;;;9.28;100.00
14067;BME280;7108;42.684;23.350;2023-04-03T01:40:13;94715.78;;;9.14;100.00
14067;BME280;7108;42.684;23.350;2023-04-03T01:42:39;94718.50;;;9.18;100.00
14067;BME280;7108;42.684;23.350;2023-04-03T01:45:05;94709.91;;;9.09;100.00
14067;BME280;7108;42.684;23.350;2023-04-03T01:47:30;94724.59;;;9.15;100.00
14067;BME280;7108;42.684;23.350;2023-04-03T01:49:56;94721.16;;;9.14;100.00
14067;BME280;7108;42.684;23.350;2023-04-03T01:52:21;94726.81;;;9.10;100.00
14067;BME280;7108;42.684;23.350;2023-04-03T01:54:46;94712.50;;;9.02;100.00
14067;BME280;7108;42.684;23.350;2023-04-03T01:57:12;94729.44;;;9.06;100.00
14067;BME280;7108;42.684;23.350;2023-04-03T01:59:38;94735.34;;;9.15;100.00
14067;BME280;7108;42.684;23.350;2023-04-03T02:02:04;94722.66;;;9.12;100.00
14067;BME280;7108;42.684;23.350;2023-04-03T02:04:29;94734.16;;;9.13;100.00
14067;BME280;7108;42.684;23.350;2023-04-03T02:06:55;94737.59;;;9.13;100.00
14067;BME280;7108;42.684;23.350;2023-04-03T02:09:20;94729.69;;;8.98;100.00
14067;BME280;7108;42.684;23.350;2023-04-03T02:11:46;94738.34;;;8.88;100.00
14067;BME280;7108;42.684;23.350;2023-04-03T02:14:11;94739.84;;;8.85;100.00
14067;BME280;7108;42.684;23.350;2023-04-03T02:16:36;94730.88;;;8.78;100.00
14067;BME280;7108;42.684;23.350;2023-04-03T02:19:03;94740.50;;;8.79;100.00
14067;BME280;7108;42.684;23.350;2023-04-03T02:21:28;94744.63;;;8.73;100.00
14067;BME280;7108;42.684;23.350;2023-04-03T02:23:53;94742.41;;;8.78;100.00
14067;BME280;7108;42.684;23.350;2023-04-03T02:26:19;94732.47;;;8.82;100.00
14067;BME280;7108;42.684;23.350;2023-04-03T02:28:45;94729.03;;;8.82;100.00
14067;BME280;7108;42.684;23.350;2023-04-03T02:31:10;94725.59;;;8.81;100.00
14067;BME280;7108;42.684;23.350;2023-04-03T02:33:36;94717.09;;;8.79;100.00
14067;BME280;7108;42.684;23.350;2023-04-03T02:36:03;94715.09;;;8.76;100.00
14067;BME280;7108;42.684;23.350;2023-04-03T02:38:29;94713.97;;;8.77;100.00
14067;BME280;7108;42.684;23.350;2023-04-03T02:41:07;94708.53;;;8.74;100.00
14067;BME280;7108;42.684;23.350;2023-04-03T02:43:33;94715.84;;;8.73;100.00
14067;BME280;7108;42.684;23.350;2023-04-03T02:45:58;94713.81;;;8.67;100.00
14067;BME280;7108;42.684;23.350;2023-04-03T02:48:24;94716.28;;;8.56;100.00
14067;BME280;7108;42.684;23.350;2023-04-03T02:50:50;94714.09;;;8.62;100.00
14067;BME280;7108;42.684;23.350;2023-04-03T02:53:16;94705.91;;;8.55;100.00
14067;BME280;7108;42.684;23.350;2023-04-03T02:55:41;94712.00;;;8.52;100.00
14067;BME280;7108;42.684;23.350;2023-04-03T02:58:07;94700.47;;;8.51;100.00
14067;BME280;7108;42.684;23.350;2023-04-03T03:00:33;94702.53;;;8.58;100.00
14067;BME280;7108;42.684;23.350;2023-04-03T03:02:59;94697.44;;;8.53;100.00
14067;BME280;7108;42.684;23.350;2023-04-03T03:05:25;94708.53;;;8.51;100.00
14067;BME280;7108;42.684;23.350;2023-04-03T03:07:51;94704.25;;;8.47;100.00
14067;BME280;7108;42.684;23.350;2023-04-03T03:10:17;94700.66;;;8.40;100.00
14067;BME280;7108;42.684;23.350;2023-04-03T03:12:42;94696.13;;;8.44;100.00
14067;BME280;7108;42.684;23.350;2023-04-03T03:15:08;94695.84;;;8.48;100.00
14067;BME280;7108;42.684;23.350;2023-04-03T03:17:33;94690.03;;;8.47;100.00
14067;BME280;7108;42.684;23.350;2023-04-03T03:20:00;94689.13;;;8.39;100.00
14067;BME280;7108;42.684;23.350;2023-04-03T03:22:27;94693.44;;;8.44;100.00
14067;BME280;7108;42.684;23.350;2023-04-03T03:24:53;94695.59;;;8.35;100.00
14067;BME280;7108;42.684;23.350;2023-04-03T03:27:18;94689.72;;;8.29;100.00
14067;BME280;7108;42.684;23.350;2023-04-03T03:29:44;94686.69;;;8.31;100.00
14067;BME280;7108;42.684;23.350;2023-04-03T03:32:09;94688.16;;;8.28;100.00
14067;BME280;7108;42.684;23.350;2023-04-03T03:34:34;94699.53;;;8.22;100.00
14067;BME280;7108;42.684;23.350;2023-04-03T03:37:00;94691.97;;;8.27;100.00
14067;BME280;7108;42.684;23.350;2023-04-03T03:39:26;94696.22;;;8.28;100.00
14067;BME280;7108;42.684;23.350;2023-04-03T03:41:51;94699.69;;;8.29;100.00
14067;BME280;7108;42.684;23.350;2023-04-03T03:44:19;94708.16;;;8.31;100.00
14067;BME280;7108;42.684;23.350;2023-04-03T03:46:44;94702.00;;;8.30;100.00
14067;BME280;7108;42.684;23.350;2023-04-03T03:49:10;94702.38;;;8.29;100.00
14067;BME280;7108;42.684;23.350;2023-04-03T03:51:36;94685.84;;;8.27;100.00
14067;BME280;7108;42.684;23.350;2023-04-03T03:54:02;94693.06;;;8.23;100.00
14067;BME280;7108;42.684;23.350;2023-04-03T03:56:28;94702.00;;;8.30;100.00
14067;BME280;7108;42.684;23.350;2023-04-03T03:58:53;94701.59;;;8.28;100.00
14067;BME280;7108;42.684;23.350;2023-04-03T04:01:21;94704.41;;;8.35;100.00
14067;BME280;7108;42.684;23.350;2023-04-03T04:03:47;94699.88;;;8.39;100.00
14067;BME280;7108;42.684;23.350;2023-04-03T04:06:13;94697.13;;;8.36;100.00
14067;BME280;7108;42.684;23.350;2023-04-03T04:08:38;94701.22;;;8.30;100.00
14067;BME280;7108;42.684;23.350;2023-04-03T04:11:04;94697.09;;;8.32;100.00
14067;BME280;7108;42.684;23.350;2023-04-03T04:13:29;94692.03;;;8.31;100.00
14067;BME280;7108;42.684;23.350;2023-04-03T04:15:55;94693.16;;;8.30;100.00
14067;BME280;7108;42.684;23.350;2023-04-03T04:18:20;94701.59;;;8.28;100.00
14067;BME280;7108;42.684;23.350;2023-04-03T04:20:47;94711.94;;;8.30;100.00
14067;BME280;7108;42.684;23.350;2023-04-03T04:23:13;94717.31;;;8.30;100.00
14067;BME280;7108;42.684;23.350;2023-04-03T04:25:38;94726.16;;;8.30;100.00
14067;BME280;7108;42.684;23.350;2023-04-03T04:28:04;94714.03;;;8.36;100.00
14067;BME280;7108;42.684;23.350;2023-04-03T04:30:29;94720.06;;;8.33;100.00
14067;BME280;7108;42.684;23.350;2023-04-03T04:32:55;94720.66;;;8.23;100.00
14067;BME280;7108;42.684;23.350;2023-04-03T04:35:21;94709.28;;;8.30;100.00
14067;BME280;7108;42.684;23.350;2023-04-03T04:37:46;94716.13;;;8.27;100.00
14067;BME280;7108;42.684;23.350;2023-04-03T04:40:11;94722.34;;;8.31;100.00
14067;BME280;7108;42.684;23.350;2023-04-03T04:42:37;94722.34;;;8.31;100.00
14067;BME280;7108;42.684;23.350;2023-04-03T04:45:03;94727.28;;;8.29;100.00
14067;BME280;7108;42.684;23.350;2023-04-03T04:47:29;94716.91;;;8.28;100.00
14067;BME280;7108;42.684;23.350;2023-04-03T04:49:54;94728.13;;;8.33;100.00
14067;BME280;7108;42.684;23.350;2023-04-03T04:52:20;94731.25;;;8.35;100.00
14067;BME280;7108;42.684;23.350;2023-04-03T04:54:46;94739.00;;;8.40;100.00
14067;BME280;7108;42.684;23.350;2023-04-03T04:57:11;94739.19;;;8.50;100.00
14067;BME280;7108;42.684;23.350;2023-04-03T04:59:37;94737.69;;;8.53;100.00
14067;BME280;7108;42.684;23.350;2023-04-03T05:02:02;94740.53;;;8.60;100.00
14067;BME280;7108;42.684;23.350;2023-04-03T05:04:27;94742.09;;;8.61;100.00
14067;BME280;7108;42.684;23.350;2023-04-03T05:06:53;94751.03;;;8.68;100.00
14067;BME280;7108;42.684;23.350;2023-04-03T05:09:18;94760.28;;;8.71;100.00
14067;BME280;7108;42.684;23.350;2023-04-03T05:11:45;94754.16;;;8.70;100.00
14067;BME280;7108;42.684;23.350;2023-04-03T05:14:11;94762.97;;;8.71;100.00
14067;BME280;7108;42.684;23.350;2023-04-03T05:16:37;94760.50;;;8.81;100.00
14067;BME280;7108;42.684;23.350;2023-04-03T05:19:02;94763.19;;;8.81;100.00
14067;BME280;7108;42.684;23.350;2023-04-03T05:21:28;94767.09;;;8.87;100.00
14067;BME280;7108;42.684;23.350;2023-04-03T05:23:58;94768.59;;;8.85;100.00
14067;BME280;7108;42.684;23.350;2023-04-03T05:26:24;94772.25;;;8.96;100.00
14067;BME280;7108;42.684;23.350;2023-04-03T05:28:51;94764.38;;;9.06;100.00
14067;BME280;7108;42.684;23.350;2023-04-03T05:31:16;94764.78;;;9.08;100.00
14067;BME280;7108;42.684;23.350;2023-04-03T05:33:42;94763.78;;;9.16;100.00
14067;BME280;7108;42.684;23.350;2023-04-03T05:36:08;94759.66;;;9.22;100.00
14067;BME280;7108;42.684;23.350;2023-04-03T05:38:33;94753.97;;;9.27;100.00
14067;BME280;7108;42.684;23.350;2023-04-03T05:40:59;94749.88;;;9.36;100.00
14067;BME280;7108;42.684;23.350;2023-04-03T05:43:24;94750.75;;;9.40;100.00
14067;BME280;7108;42.684;23.350;2023-04-03T05:45:51;94751.88;;;9.39;100.00
14067;BME280;7108;42.684;23.350;2023-04-03T05:48:17;94757.84;;;9.29;100.00
14067;BME280;7108;42.684;23.350;2023-04-03T05:50:42;94742.84;;;9.28;100.00
14067;BME280;7108;42.684;23.350;2023-04-03T05:53:18;94746.97;;;9.22;100.00
14067;BME280;7108;42.684;23.350;2023-04-03T05:55:45;94750.28;;;9.13;100.00
14067;BME280;7108;42.684;23.350;2023-04-03T05:58:11;94744.97;;;9.16;100.00
14067;BME280;7108;42.684;23.350;2023-04-03T06:00:36;94750.09;;;9.24;100.00
14067;BME280;7108;42.684;23.350;2023-04-03T06:03:02;94736.00;;;9.31;100.00
14067;BME280;7108;42.684;23.350;2023-04-03T06:05:27;94739.03;;;9.29;100.00
14067;BME280;7108;42.684;23.350;2023-04-03T06:07:53;94736.75;;;9.31;100.00
14067;BME280;7108;42.684;23.350;2023-04-03T06:10:18;94731.16;;;9.17;100.00
14067;BME280;7108;42.684;23.350;2023-04-03T06:12:45;94734.59;;;9.14;100.00
14067;BME280;7108;42.684;23.350;2023-04-03T06:15:11;94733.41;;;9.15;100.00
14067;BME280;7108;42.684;23.350;2023-04-03T06:17:37;94720.53;;;9.24;100.00
14067;BME280;7108;42.684;23.350;2023-04-03T06:20:03;94715.78;;;9.40;100.00
14067;BME280;7108;42.684;23.350;2023-04-03T06:22:29;94713.19;;;9.47;100.00
14067;BME280;7108;42.684;23.350;2023-04-03T06:24:56;94713.03;;;9.37;100.00
14067;BME280;7108;42.684;23.350;2023-04-03T06:27:21;94730.06;;;9.44;100.00
14067;BME280;7108;42.684;23.350;2023-04-03T06:29:47;94725.19;;;9.53;100.00
14067;BME280;7108;42.684;23.350;2023-04-03T06:32:14;94738.31;;;9.58;100.00
14067;BME280;7108;42.684;23.350;2023-04-03T06:34:39;94736.94;;;9.68;100.00
14067;BME280;7108;42.684;23.350;2023-04-03T06:37:05;94743.50;;;9.70;100.00
14067;BME280;7108;42.684;23.350;2023-04-03T06:39:31;94743.81;;;9.65;100.00
14067;BME280;7108;42.684;23.350;2023-04-03T06:41:57;94748.31;;;9.58;100.00
14067;BME280;7108;42.684;23.350;2023-04-03T06:44:23;94751.25;;;9.49;100.00
14067;BME280;7108;42.684;23.350;2023-04-03T06:46:48;94743.31;;;9.56;100.00
14067;BME280;7108;42.684;23.350;2023-04-03T06:49:13;94741.00;;;9.58;100.00
14067;BME280;7108;42.684;23.350;2023-04-03T06:51:40;94726.06;;;9.61;100.00
14067;BME280;7108;42.684;23.350;2023-04-03T06:54:06;94742.69;;;9.70;100.00
14067;BME280;7108;42.684;23.350;2023-04-03T06:56:33;94736.50;;;9.66;100.00
14067;BME280;7108;42.684;23.350;2023-04-03T06:58:59;94745.38;;;9.66;100.00
14067;BME280;7108;42.684;23.350;2023-04-03T07:01:26;94743.19;;;9.75;100.00
14067;BME280;7108;42.684;23.350;2023-04-03T07:03:53;94739.91;;;9.88;100.00
14067;BME280;7108;42.684;23.350;2023-04-03T07:06:19;94736.09;;;9.89;100.00
14067;BME280;7108;42.684;23.350;2023-04-03T07:08:45;94736.25;;;10.00;100.00
14067;BME280;7108;42.684;23.350;2023-04-03T07:11:12;94731.03;;;10.14;100.00
14067;BME280;7108;42.684;23.350;2023-04-03T07:13:38;94728.34;;;10.14;100.00
14067;BME280;7108;42.684;23.350;2023-04-03T07:16:03;94725.03;;;10.27;100.00
14067;BME280;7108;42.684;23.350;2023-04-03T07:18:31;94720.78;;;10.23;100.00
14067;BME280;7108;42.684;23.350;2023-04-03T07:20:56;94707.78;;;10.32;100.00
14067;BME280;7108;42.684;23.350;2023-04-03T07:23:22;94725.34;;;10.55;100.00
14067;BME280;7108;42.684;23.350;2023-04-03T07:25:50;94722.41;;;10.67;100.00
14067;BME280;7108;42.684;23.350;2023-04-03T07:28:17;94714.84;;;10.79;100.00
14067;BME280;7108;42.684;23.350;2023-04-03T07:30:48;94715.84;;;10.64;100.00
14067;BME280;7108;42.684;23.350;2023-04-03T07:33:15;94728.69;;;10.78;100.00
14067;BME280;7108;42.684;23.350;2023-04-03T07:35:41;94716.09;;;10.89;100.00
14067;BME280;7108;42.684;23.350;2023-04-03T07:38:07;94720.69;;;10.88;100.00
14067;BME280;7108;42.684;23.350;2023-04-03T07:40:33;94715.72;;;10.90;100.00
14067;BME280;7108;42.684;23.350;2023-04-03T07:42:59;94707.97;;;10.85;100.00
14067;BME280;7108;42.684;23.350;2023-04-03T07:45:25;94714.53;;;10.88;100.00
14067;BME280;7108;42.684;23.350;2023-04-03T07:47:50;94710.75;;;10.96;100.00
14067;BME280;7108;42.684;23.350;2023-04-03T07:50:17;94683.41;;;10.94;100.00
14067;BME280;7108;42.684;23.350;2023-04-03T07:52:43;94686.06;;;10.90;100.00
14067;BME280;7108;42.684;23.350;2023-04-03T07:55:08;94693.38;;;10.90;100.00
14067;BME280;7108;42.684;23.350;2023-04-03T07:57:34;94689.16;;;10.89;100.00
14067;BME280;7108;42.684;23.350;2023-04-03T08:00:00;94696.81;;;10.87;100.00
14067;BME280;7108;42.684;23.350;2023-04-03T08:02:25;94685.72;;;10.95;100.00
14067;BME280;7108;42.684;23.350;2023-04-03T08:04:51;94682.19;;;10.88;100.00
14067;BME280;7108;42.684;23.350;2023-04-03T08:07:17;94675.69;;;10.92;100.00
14067;BME280;7108;42.684;23.350;2023-04-03T08:09:43;94694.63;;;10.99;100.00
14067;BME280;7108;42.684;23.350;2023-04-03T08:12:09;94690.47;;;11.09;100.00
14067;BME280;7108;42.684;23.350;2023-04-03T08:14:36;94676.66;;;11.17;100.00
14067;BME280;7108;42.684;23.350;2023-04-03T08:17:02;94673.59;;;11.18;100.00
14067;BME280;7108;42.684;23.350;2023-04-03T08:19:30;94671.66;;;11.19;100.00
14067;BME280;7108;42.684;23.350;2023-04-03T08:21:56;94676.00;;;11.34;100.00
14067;BME280;7108;42.684;23.350;2023-04-03T08:24:24;94680.72;;;11.47;100.00
14067;BME280;7108;42.684;23.350;2023-04-03T08:26:49;94672.69;;;11.51;100.00
14067;BME280;7108;42.684;23.350;2023-04-03T08:29:15;94669.16;;;11.47;100.00
14067;BME280;7108;42.684;23.350;2023-04-03T08:31:40;94664.50;;;11.44;100.00
14067;BME280;7108;42.684;23.350;2023-04-03T08:34:06;94671.88;;;11.47;100.00
14067;BME280;7108;42.684;23.350;2023-04-03T08:36:31;94670.75;;;11.51;100.00
14067;BME280;7108;42.684;23.350;2023-04-03T08:38:57;94668.50;;;11.57;100.00
14067;BME280;7108;42.684;23.350;2023-04-03T08:41:39;94661.94;;;11.58;100.00
14067;BME280;7108;42.684;23.350;2023-04-03T08:44:15;94657.97;;;11.45;100.00
14067;BME280;7108;42.684;23.350;2023-04-03T08:49:43;94653.38;;;11.45;100.00
14067;BME280;7108;42.684;23.350;2023-04-03T08:52:22;94648.44;;;11.54;100.00
14067;BME280;7108;42.684;23.350;2023-04-03T08:54:56;94640.75;;;11.60;100.00
14067;BME280;7108;42.684;23.350;2023-04-03T08:57:33;94650.03;;;11.66;100.00
14067;BME280;7108;42.684;23.350;2023-04-03T09:00:37;94645.44;;;11.73;100.00
14067;BME280;7108;42.684;23.350;2023-04-03T09:02:55;94637.06;;;11.92;100.00
14067;BME280;7108;42.684;23.350;2023-04-03T09:08:33;94629.84;;;12.20;100.00
14067;BME280;7108;42.684;23.350;2023-04-03T09:11:24;94625.59;;;12.30;100.00
14067;BME280;7108;42.684;23.350;2023-04-03T09:14:07;94624.84;;;12.33;100.00
14067;BME280;7108;42.684;23.350;2023-04-03T09:22:10;94617.53;;;12.50;100.00
14067;BME280;7108;42.684;23.350;2023-04-03T09:24:38;94613.69;;;12.55;100.00
14067;BME280;7108;42.684;23.350;2023-04-03T09:27:05;94600.97;;;12.52;100.00
14067;BME280;7108;42.684;23.350;2023-04-03T09:29:37;94609.06;;;12.48;100.00
14067;BME280;7108;42.684;23.350;2023-04-03T09:32:19;94597.47;;;12.38;100.00
14067;BME280;7108;42.684;23.350;2023-04-03T09:34:47;94600.16;;;12.38;100.00
14067;BME280;7108;42.684;23.350;2023-04-03T09:37:34;94601.34;;;12.43;100.00
14067;BME280;7108;42.684;23.350;2023-04-03T09:40:01;94597.88;;;12.50;100.00
14067;BME280;7108;42.684;23.350;2023-04-03T09:42:30;94596.72;;;12.51;100.00
14067;BME280;7108;42.684;23.350;2023-04-03T09:44:58;94604.06;;;12.61;100.00
14067;BME280;7108;42.684;23.350;2023-04-03T09:47:26;94588.22;;;12.66;100.00
14067;BME280;7108;42.684;23.350;2023-04-03T09:50:22;94583.97;;;12.69;100.00
14067;BME280;7108;42.684;23.350;2023-04-03T09:52:50;94583.97;;;12.62;100.00
14067;BME280;7108;42.684;23.350;2023-04-03T09:55:26;94574.69;;;12.63;100.00
14067;BME280;7108;42.684;23.350;2023-04-03T09:57:58;94574.69;;;12.66;100.00
14067;BME280;7108;42.684;23.350;2023-04-03T10:00:32;94568.91;;;12.75;100.00
14067;BME280;7108;42.684;23.350;2023-04-03T10:02:58;94570.09;;;12.70;100.00
14067;BME280;7108;42.684;23.350;2023-04-03T10:05:44;94578.97;;;12.71;100.00
14067;BME280;7108;42.684;23.350;2023-04-03T10:10:35;94558.13;;;12.64;100.00
14067;BME280;7108;42.684;23.350;2023-04-03T10:13:14;94573.56;;;12.67;100.00
14067;BME280;7108;42.684;23.350;2023-04-03T10:16:03;94570.84;;;12.67;100.00
14067;BME280;7108;42.684;23.350;2023-04-03T10:21:19;94570.47;;;12.58;100.00
14067;BME280;7108;42.684;23.350;2023-04-03T10:38:23;94549.59;;;12.59;100.00
14067;BME280;7108;42.684;23.350;2023-04-03T10:40:59;94547.31;;;12.61;100.00
14067;BME280;7108;42.684;23.350;2023-04-03T10:44:07;94539.94;;;12.58;100.00
14067;BME280;7108;42.684;23.350;2023-04-03T10:46:38;94536.09;;;12.59;100.00
14067;BME280;7108;42.684;23.350;2023-04-03T10:49:38;94530.31;;;12.67;100.00
14067;BME280;7108;42.684;23.350;2023-04-03T10:52:25;94532.25;;;12.67;100.00
14067;BME280;7108;42.684;23.350;2023-04-03T10:57:28;94533.78;;;12.71;100.00
14067;BME280;7108;42.684;23.350;2023-04-03T11:00:04;94519.88;;;12.66;100.00
14067;BME280;7108;42.684;23.350;2023-04-03T11:02:44;94531.84;;;12.72;100.00
14067;BME280;7108;42.684;23.350;2023-04-03T11:05:47;94533.78;;;12.75;100.00
14067;BME280;7108;42.684;23.350;2023-04-03T11:08:33;94543.41;;;12.65;100.00
14067;BME280;7108;42.684;23.350;2023-04-03T11:11:04;94536.88;;;12.66;100.00
14067;BME280;7108;42.684;23.350;2023-04-03T11:16:21;94549.63;;;12.52;100.00
14067;BME280;7108;42.684;23.350;2023-04-03T11:18:52;94549.59;;;12.38;100.00
14067;BME280;7108;42.684;23.350;2023-04-03T11:23:47;94547.66;;;12.42;100.00
14067;BME280;7108;42.684;23.350;2023-04-03T11:26:19;94550.75;;;12.37;100.00
14067;BME280;7108;42.684;23.350;2023-04-03T11:28:46;94547.28;;;12.26;100.00
14067;BME280;7108;42.684;23.350;2023-04-03T11:36:50;94548.03;;;12.13;100.00
14067;BME280;7108;42.684;23.350;2023-04-03T11:41:49;94545.28;;;12.02;100.00
14067;BME280;7108;42.684;23.350;2023-04-03T11:44:35;94547.22;;;12.09;100.00
14067;BME280;7108;42.684;23.350;2023-04-03T11:47:03;94542.22;;;11.97;100.00
14067;BME280;7108;42.684;23.350;2023-04-03T12:21:23;94564.34;;;11.42;100.00
14067;BME280;7108;42.684;23.350;2023-04-03T12:24:27;94563.50;;;11.31;100.00
14067;BME280;7108;42.684;23.350;2023-04-03T12:29:55;94559.97;;;11.20;100.00
14067;BME280;7108;42.684;23.350;2023-04-03T12:48:27;94542.06;;;10.88;100.00
14067;BME280;7108;42.684;23.350;2023-04-03T12:50:54;94539.31;;;10.81;100.00
14067;BME280;7108;42.684;23.350;2023-04-03T12:53:24;94531.13;;;10.67;100.00
14067;BME280;7108;42.684;23.350;2023-04-03T12:55:55;94530.31;;;10.59;100.00
14067;BME280;7108;42.684;23.350;2023-04-03T12:58:27;94536.81;;;10.55;100.00
14067;BME280;7108;42.684;23.350;2023-04-03T13:01:28;94540.25;;;10.48;100.00
14067;BME280;7108;42.684;23.350;2023-04-03T13:03:57;94539.75;;;10.36;100.00
14067;BME280;7108;42.684;23.350;2023-04-03T13:06:27;94546.66;;;10.37;100.00
14067;BME280;7108;42.684;23.350;2023-04-03T13:08:56;94555.53;;;10.38;100.00
14067;BME280;7108;42.684;23.350;2023-04-03T13:11:28;94561.31;;;10.40;100.00
14067;BME280;7108;42.684;23.350;2023-04-03T13:14:01;94558.28;;;10.45;100.00
14067;BME280;7108;42.684;23.350;2023-04-03T13:16:28;94548.66;;;10.44;100.00
14067;BME280;7108;42.684;23.350;2023-04-03T13:18:55;94543.56;;;10.32;100.00
14067;BME280;7108;42.684;23.350;2023-04-03T13:23:53;94550.06;;;10.31;100.00
14067;BME280;7108;42.684;23.350;2023-04-03T13:26:21;94545.03;;;10.26;100.00
14067;BME280;7108;42.684;23.350;2023-04-03T13:28:48;94542.34;;;10.26;100.00
14067;BME280;7108;42.684;23.350;2023-04-03T13:31:28;94540.44;;;10.26;100.00
14067;BME280;7108;42.684;23.350;2023-04-03T13:34:09;94539.22;;;10.20;100.00
14067;BME280;7108;42.684;23.350;2023-04-03T13:36:38;94533.34;;;10.11;100.00
14067;BME280;7108;42.684;23.350;2023-04-03T13:39:34;94541.13;;;10.16;100.00
14067;BME280;7108;42.684;23.350;2023-04-03T13:42:02;94530.25;;;10.06;100.00
14067;BME280;7108;42.684;23.350;2023-04-03T13:44:40;94532.94;;;10.06;100.00
14067;BME280;7108;42.684;23.350;2023-04-03T13:47:21;94535.25;;;10.07;100.00
14067;BME280;7108;42.684;23.350;2023-04-03T13:50:11;94536.72;;;9.98;100.00
14067;BME280;7108;42.684;23.350;2023-04-03T13:53:13;94524.31;;;9.93;100.00
14067;BME280;7108;42.684;23.350;2023-04-03T13:56:30;94527.03;;;9.93;100.00
14067;BME280;7108;42.684;23.350;2023-04-03T13:58:55;94523.91;;;9.91;100.00
14067;BME280;7108;42.684;23.350;2023-04-03T14:01:22;94525.03;;;9.90;100.00
14067;BME280;7108;42.684;23.350;2023-04-03T14:04:09;94518.16;;;9.93;100.00
14067;BME280;7108;42.684;23.350;2023-04-03T14:06:35;94517.38;;;9.92;100.00
14067;BME280;7108;42.684;23.350;2023-04-03T14:09:01;94525.97;;;10.01;100.00
14067;BME280;7108;42.684;23.350;2023-04-03T14:11:29;94516.38;;;10.00;100.00
14067;BME280;7108;42.684;23.350;2023-04-03T14:13:58;94518.72;;;10.05;100.00
14067;BME280;7108;42.684;23.350;2023-04-03T14:16:28;94516.78;;;10.06;100.00
14067;BME280;7108;42.684;23.350;2023-04-03T14:18:55;94519.88;;;10.08;100.00
14067;BME280;7108;42.684;23.350;2023-04-03T14:21:22;94515.28;;;10.08;100.00
14067;BME280;7108;42.684;23.350;2023-04-03T14:23:48;94519.09;;;10.07;100.00
14067;BME280;7108;42.684;23.350;2023-04-03T14:26:24;94510.59;;;10.02;100.00
14067;BME280;7108;42.684;23.350;2023-04-03T14:28:53;94514.44;;;10.01;100.00
14067;BME280;7108;42.684;23.350;2023-04-03T14:31:20;94508.13;;;9.90;100.00
14067;BME280;7108;42.684;23.350;2023-04-03T14:33:46;94509.31;;;9.92;100.00
14067;BME280;7108;42.684;23.350;2023-04-03T14:36:18;94512.88;;;10.00;100.00
14067;BME280;7108;42.684;23.350;2023-04-03T14:38:45;94510.25;;;10.07;100.00
14067;BME280;7108;42.684;23.350;2023-04-03T14:41:13;94510.97;;;10.00;100.00
14067;BME280;7108;42.684;23.350;2023-04-03T14:43:39;94509.44;;;9.99;100.00
14067;BME280;7108;42.684;23.350;2023-04-03T14:46:05;94503.66;;;10.01;100.00
14067;BME280;7108;42.684;23.350;2023-04-03T14:48:34;94500.63;;;10.06;100.00
14067;BME280;7108;42.684;23.350;2023-04-03T14:51:00;94498.72;;;10.06;100.00
14067;BME280;7108;42.684;23.350;2023-04-03T14:53:26;94498.25;;;9.97;100.00